createdAt,value
2018-07-28T00:00:27.032Z,8.90
2018-07-28T00:05:23.728Z,9.20
2018-07-28T00:10:20.789Z,10.08
2018-07-28T00:15:17.505Z,9.47
2018-07-28T00:20:14.585Z,10.08
2018-07-28T00:25:11.916Z,11.97
2018-07-28T00:30:10.149Z,12.63
2018-07-28T00:35:07.933Z,9.60
2018-07-28T00:40:04.897Z,11.63
2018-07-28T00:45:02.108Z,10.03
2018-07-28T00:49:59.131Z,9.63
2018-07-28T00:54:55.905Z,9.77
2018-07-28T00:59:52.831Z,9.60
2018-07-28T01:04:49.810Z,10.33
2018-07-28T01:09:46.770Z,10.43
2018-07-28T01:14:43.515Z,12.40
2018-07-28T01:19:41.005Z,10.87
2018-07-28T01:24:37.858Z,11.07
2018-07-28T01:29:34.926Z,10.13
2018-07-28T01:34:31.753Z,10.53
2018-07-28T01:39:28.745Z,11.67
2018-07-28T01:44:25.522Z,11.47
2018-07-28T01:49:22.625Z,11.30
2018-07-28T01:54:19.273Z,10.83
2018-07-28T01:59:16.484Z,10.87
2018-07-28T02:04:13.276Z,12.67
2018-07-28T02:09:11.241Z,10.87
2018-07-28T02:14:08.267Z,11.33
2018-07-28T02:19:05.020Z,11.87
2018-07-28T02:24:02.723Z,11.10
2018-07-28T02:28:59.482Z,10.90
2018-07-28T02:33:56.656Z,12.27
2018-07-28T02:38:53.504Z,11.47
2018-07-28T02:43:50.485Z,11.50
2018-07-28T02:48:47.439Z,11.27
2018-07-28T02:53:44.983Z,13.37
2018-07-28T02:58:42.292Z,10.97
2018-07-28T03:03:39.517Z,12.97
2018-07-28T03:08:36.417Z,12.97
2018-07-28T03:13:33.160Z,11.67
2018-07-28T03:18:30.031Z,11.93
2018-07-28T03:23:26.805Z,11.97
2018-07-28T03:28:24.315Z,13.23
2018-07-28T03:33:21.033Z,12.60
2018-07-28T03:38:18.098Z,12.70
2018-07-28T03:43:15.035Z,14.33
2018-07-28T03:48:11.747Z,12.50
2018-07-28T03:53:08.681Z,12.20
2018-07-28T03:58:05.723Z,12.70
2018-07-28T04:03:02.501Z,13.03
2018-07-28T04:07:59.451Z,13.40
2018-07-28T04:12:56.196Z,13.60
2018-07-28T04:17:54.102Z,13.50
2018-07-28T04:22:51.347Z,13.90
2018-07-28T04:27:48.328Z,14.03
2018-07-28T04:32:46.003Z,12.97
2018-07-28T04:37:42.710Z,12.87
2018-07-28T04:42:40.522Z,13.97
2018-07-28T04:47:37.233Z,14.33
2018-07-28T04:52:34.475Z,13.60
2018-07-28T04:57:31.295Z,16.17
2018-07-28T05:02:28.691Z,14.83
2018-07-28T05:07:26.032Z,13.90
2018-07-28T05:12:23.005Z,13.50
2018-07-28T05:17:20.513Z,12.88
2018-07-28T05:22:17.284Z,14.60
2018-07-28T05:27:14.333Z,13.33
2018-07-28T05:32:11.084Z,13.60
2018-07-28T05:37:08.078Z,12.88
2018-07-28T05:42:04.805Z,12.75
2018-07-28T05:47:01.986Z,12.73
2018-07-28T05:51:58.746Z,12.88
2018-07-28T05:56:56.831Z,11.78
2018-07-28T06:01:53.563Z,13.00
2018-07-28T06:06:50.748Z,11.85
2018-07-28T06:11:47.481Z,11.80
2018-07-28T06:16:44.488Z,10.53
2018-07-28T06:21:41.232Z,11.50
2018-07-28T06:26:38.805Z,10.45
2018-07-28T06:31:35.600Z,9.75
2018-07-28T06:36:32.473Z,9.18
2018-07-28T06:41:29.217Z,8.13
2018-07-28T06:46:25.929Z,8.60
2018-07-28T06:51:22.663Z,8.25
2018-07-28T06:56:19.754Z,8.48
2018-07-28T07:01:17.118Z,9.75
2018-07-28T07:06:14.111Z,11.28
2018-07-28T07:11:10.846Z,12.47
2018-07-28T07:16:08.149Z,7.12
2018-07-28T07:21:04.934Z,8.43
2018-07-28T07:26:01.845Z,7.42
2018-07-28T07:30:58.604Z,9.10
2018-07-28T07:36:02.431Z,8.98
2018-07-28T07:40:59.233Z,10.15
2018-07-28T07:45:56.258Z,6.58
2018-07-28T07:50:53.026Z,6.58
2018-07-28T07:55:50.163Z,9.73
2018-07-28T08:00:46.901Z,8.40
2018-07-28T08:05:44.899Z,7.15
2018-07-28T08:10:41.671Z,6.35
2018-07-28T08:15:38.837Z,7.78
2018-07-28T08:20:35.553Z,7.78
2018-07-28T08:25:32.555Z,8.80
2018-07-28T08:30:29.280Z,7.12
2018-07-28T08:35:26.176Z,6.05
2018-07-28T08:40:24.938Z,6.95
2018-07-28T08:45:22.156Z,6.65
2018-07-28T08:50:19.081Z,9.35
2018-07-28T08:55:16.377Z,8.25
2018-07-28T09:00:13.072Z,5.12
2018-07-28T09:05:10.006Z,5.10
2018-07-28T09:10:06.753Z,4.92
2018-07-28T09:15:04.751Z,5.45
2018-07-28T09:20:02.747Z,5.58
2018-07-28T09:24:59.901Z,5.90
2018-07-28T09:29:56.637Z,6.70
2018-07-28T09:34:53.623Z,5.90
2018-07-28T09:39:50.359Z,5.15
2018-07-28T09:44:47.424Z,6.50
2018-07-28T09:49:44.195Z,4.53
2018-07-28T09:54:41.773Z,4.08
2018-07-28T09:59:38.742Z,3.80
2018-07-28T10:04:35.489Z,4.00
2018-07-28T10:09:32.320Z,4.00
2018-07-28T10:14:29.317Z,6.00
2018-07-28T10:19:26.062Z,7.90
2018-07-28T10:24:23.322Z,9.68
2018-07-28T10:29:21.487Z,4.55
2018-07-28T10:34:19.123Z,4.78
2018-07-28T10:39:16.293Z,6.65
2018-07-28T10:44:13.306Z,4.90
2018-07-28T10:49:10.328Z,5.87
2018-07-28T10:54:07.315Z,6.62
2018-07-28T10:59:04.637Z,8.35
2018-07-28T11:04:01.477Z,4.87
2018-07-28T11:08:58.486Z,4.87
2018-07-28T11:13:56.084Z,4.58
2018-07-28T11:18:53.647Z,5.15
2018-07-28T11:23:52.998Z,6.20
2018-07-28T11:28:51.231Z,5.65
2018-07-28T11:33:53.938Z,5.20
2018-07-28T11:38:56.916Z,5.35
2018-07-28T11:43:59.518Z,4.47
2018-07-28T11:48:56.224Z,6.03
2018-07-28T11:53:53.257Z,5.05
2018-07-28T11:58:50.289Z,4.67
2018-07-28T12:03:47.287Z,5.60
2018-07-28T12:08:44.098Z,8.43
2018-07-28T12:13:41.098Z,10.58
2018-07-28T12:18:38.460Z,6.87
2018-07-28T12:23:35.403Z,10.10
2018-07-28T12:28:32.141Z,6.92
2018-07-28T12:33:29.146Z,11.53
2018-07-28T12:38:25.886Z,8.45
2018-07-28T12:43:23.051Z,9.08
2018-07-28T12:48:19.723Z,4.85
2018-07-28T12:53:16.876Z,6.87
2018-07-28T12:58:13.663Z,4.83
2018-07-28T13:03:11.431Z,5.25
2018-07-28T13:08:08.579Z,8.33
2018-07-28T13:13:05.870Z,13.70
2018-07-28T13:18:02.834Z,7.87
2018-07-28T13:22:59.989Z,14.73
2018-07-28T13:27:56.740Z,10.35
2018-07-28T13:32:54.010Z,5.78
2018-07-28T13:37:50.752Z,8.98
2018-07-28T13:42:47.821Z,5.20
2018-07-28T13:47:44.648Z,7.70
2018-07-28T13:52:41.575Z,6.20
2018-07-28T13:57:38.697Z,7.47
2018-07-28T14:02:35.496Z,4.25
2018-07-28T14:07:32.428Z,3.15
2018-07-28T14:12:29.315Z,2.80
2018-07-28T14:17:26.052Z,5.28
2018-07-28T14:22:24.263Z,3.72
2018-07-28T14:27:21.274Z,3.27
2018-07-28T14:32:18.372Z,2.80
2018-07-28T14:37:15.117Z,4.42
2018-07-28T14:42:12.213Z,5.53
2018-07-28T14:47:08.951Z,4.03
2018-07-28T14:52:06.129Z,3.37
2018-07-28T14:57:02.929Z,3.77
2018-07-28T15:02:00.268Z,4.75
2018-07-28T15:06:56.968Z,5.50
2018-07-28T15:11:53.843Z,3.58
2018-07-28T15:16:50.568Z,3.70
2018-07-28T15:21:48.713Z,3.50
2018-07-28T15:26:45.686Z,4.70
2018-07-28T15:31:42.839Z,4.28
2018-07-28T15:36:39.588Z,6.87
2018-07-28T15:41:36.588Z,5.10
2018-07-28T15:46:33.329Z,4.42
2018-07-28T15:51:30.902Z,5.30
2018-07-28T15:56:28.878Z,4.45
2018-07-28T16:01:25.660Z,4.33
2018-07-28T16:06:22.397Z,4.62
2018-07-28T16:11:19.163Z,9.53
2018-07-28T16:16:16.319Z,5.80
2018-07-28T16:21:13.125Z,4.92
2018-07-28T16:26:10.059Z,5.00
2018-07-28T16:31:06.893Z,5.20
2018-07-28T16:36:03.874Z,6.05
2018-07-28T16:41:00.850Z,6.87
2018-07-28T16:45:57.799Z,6.22
2018-07-28T16:50:54.598Z,7.83
2018-07-28T16:55:51.573Z,10.18
2018-07-28T17:05:52.306Z,9.80
2018-07-28T17:10:49.024Z,8.68
2018-07-28T17:15:46.163Z,8.48
2018-07-28T17:20:42.953Z,5.70
2018-07-28T17:25:39.937Z,6.20
2018-07-28T17:30:36.695Z,6.03
2018-07-28T17:35:33.856Z,7.55
2018-07-28T17:40:31.500Z,5.47
2018-07-28T17:45:28.522Z,5.92
2018-07-28T17:50:25.275Z,5.08
2018-07-28T17:55:22.161Z,6.55
2018-07-28T18:00:18.946Z,8.83
2018-07-28T18:05:15.855Z,5.45
2018-07-28T18:10:12.660Z,5.92
2018-07-28T18:15:09.671Z,7.72
2018-07-28T18:20:06.734Z,6.92
2018-07-28T18:25:03.572Z,6.42
2018-07-28T18:30:00.557Z,7.35
2018-07-28T18:34:57.329Z,7.15
2018-07-28T18:39:54.591Z,9.23
2018-07-28T18:44:51.283Z,7.10
2018-07-28T18:49:48.211Z,7.03
2018-07-28T18:54:45.516Z,9.63
2018-07-28T18:59:42.728Z,8.60
2018-07-28T19:04:39.490Z,10.45
2018-07-28T19:09:42.189Z,7.80
2018-07-28T19:14:39.216Z,8.18
2018-07-28T19:19:36.115Z,7.78
2018-07-28T19:24:33.150Z,10.00
2018-07-28T19:29:35.881Z,8.08
2018-07-28T19:34:32.685Z,8.85
2018-07-28T19:39:30.172Z,9.70
2018-07-28T19:44:26.970Z,11.73
2018-07-28T19:49:23.916Z,9.88
2018-07-28T19:54:20.685Z,10.48
2018-07-28T19:59:17.659Z,8.53
2018-07-28T20:04:14.332Z,9.48
2018-07-28T20:09:11.363Z,12.68
2018-07-28T20:14:08.115Z,8.68
2018-07-28T20:19:05.483Z,14.25
2018-07-28T20:24:02.454Z,11.40
2018-07-28T20:28:59.701Z,11.45
2018-07-28T20:33:56.455Z,8.83
2018-07-28T20:38:53.453Z,9.98
2018-07-28T20:43:50.303Z,12.35
2018-07-28T20:48:47.360Z,7.70
2018-07-28T20:53:44.366Z,10.55
2018-07-28T20:58:41.312Z,8.88
2018-07-28T21:03:38.066Z,19.52
2018-07-28T21:08:35.221Z,14.95
2018-07-28T21:13:31.940Z,8.85
2018-07-28T21:18:29.046Z,8.60
2018-07-28T21:23:25.779Z,9.38
2018-07-28T21:28:22.762Z,10.20
2018-07-28T21:33:19.546Z,11.28
2018-07-28T21:38:16.588Z,40.98
2018-07-28T21:43:13.339Z,34.63
2018-07-28T21:48:10.418Z,10.60
2018-07-28T21:53:07.106Z,9.55
2018-07-28T21:58:04.226Z,12.98
2018-07-28T22:03:01.281Z,9.48
2018-07-28T22:07:58.253Z,9.80
2018-07-28T22:12:55.002Z,12.37
2018-07-28T22:17:51.776Z,10.78
2018-07-28T22:22:48.515Z,9.78
2018-07-28T22:27:45.582Z,12.85
2018-07-28T22:32:42.294Z,11.20
2018-07-28T22:37:39.339Z,10.18
2018-07-28T22:42:42.015Z,11.22
2018-07-28T22:47:38.707Z,10.55
2018-07-28T22:52:35.742Z,17.45
2018-07-28T22:57:32.495Z,11.00
2018-07-28T23:02:29.459Z,10.43
2018-07-28T23:07:26.194Z,27.65
2018-07-28T23:12:23.169Z,14.00
2018-07-28T23:17:20.128Z,15.83
2018-07-28T23:22:16.997Z,12.05
2018-07-28T23:27:13.957Z,11.55
2018-07-28T23:32:10.917Z,10.08
2018-07-28T23:37:08.059Z,10.35
2018-07-28T23:42:05.970Z,10.32
2018-07-28T23:47:02.796Z,12.40
2018-07-28T23:51:59.788Z,11.65
2018-07-28T23:56:56.471Z,13.50
